createdAt,value
2018-07-25T00:02:43.932Z,16.4
2018-07-25T00:07:46.289Z,16.3
2018-07-25T00:12:48.886Z,16.2
2018-07-25T00:17:51.181Z,16.1
2018-07-25T00:22:53.638Z,16.1
2018-07-25T00:27:56.100Z,16
2018-07-25T00:32:58.618Z,15.9
2018-07-25T00:38:00.941Z,15.8
2018-07-25T00:43:03.423Z,15.6
2018-07-25T00:48:05.824Z,15.5
2018-07-25T00:53:08.250Z,15.5
2018-07-25T00:58:10.768Z,15.4
2018-07-25T01:03:13.538Z,15.4
2018-07-25T01:08:15.950Z,15.3
2018-07-25T01:13:18.021Z,15.3
2018-07-25T01:18:20.587Z,15.3
2018-07-25T01:23:23.281Z,15.3
2018-07-25T01:28:25.385Z,15.2
2018-07-25T01:33:27.847Z,15.2
2018-07-25T01:38:30.282Z,15.1
2018-07-25T01:43:32.676Z,15.1
2018-07-25T01:48:35.151Z,15.2
2018-07-25T01:53:37.615Z,15.2
2018-07-25T01:58:39.981Z,15.1
2018-07-25T02:03:42.438Z,15
2018-07-25T02:08:45.034Z,14.8
2018-07-25T02:13:47.356Z,14.7
2018-07-25T02:18:49.757Z,14.6
2018-07-25T02:23:52.428Z,14.6
2018-07-25T02:28:54.627Z,14.6
2018-07-25T02:33:57.062Z,14.6
2018-07-25T02:38:59.586Z,14.5
2018-07-25T02:44:02.084Z,14.5
2018-07-25T02:49:04.492Z,14.5
2018-07-25T02:54:06.823Z,14.4
2018-07-25T02:59:09.303Z,14.5
2018-07-25T03:04:11.982Z,14.4
2018-07-25T03:09:14.238Z,14.4
2018-07-25T03:14:16.597Z,14.4
2018-07-25T03:19:19.034Z,14.4
2018-07-25T03:24:21.618Z,14.3
2018-07-25T03:29:23.904Z,14.3
2018-07-25T03:34:26.357Z,14.3
2018-07-25T03:39:28.964Z,14.3
2018-07-25T03:44:31.371Z,14.4
2018-07-25T03:49:33.669Z,14.5
2018-07-25T03:54:36.121Z,14.5
2018-07-25T03:59:38.604Z,14.5
2018-07-25T04:04:41.053Z,14.6
2018-07-25T04:09:43.447Z,14.7
2018-07-25T04:14:45.930Z,15
2018-07-25T04:19:48.372Z,15.2
2018-07-25T04:24:50.830Z,15.5
2018-07-25T04:29:53.242Z,15.7
2018-07-25T04:34:55.650Z,15.9
2018-07-25T04:39:58.353Z,16
2018-07-25T04:45:00.549Z,16.3
2018-07-25T04:50:03.044Z,16.4
2018-07-25T04:55:05.514Z,16.6
2018-07-25T05:00:08.613Z,16.9
2018-07-25T05:05:10.284Z,17.2
2018-07-25T05:10:12.878Z,17.6
2018-07-25T05:15:15.234Z,17.9
2018-07-25T05:20:17.615Z,18.4
2018-07-25T05:25:20.091Z,0
2018-07-25T05:30:22.486Z,0
2018-07-25T05:35:24.924Z,0
2018-07-25T05:40:27.343Z,29.9
2018-07-25T05:45:29.851Z,0
2018-07-25T05:50:32.267Z,0
2018-07-25T05:55:34.671Z,0
2018-07-25T06:00:37.426Z,35.9
2018-07-25T06:05:39.671Z,35.9
2018-07-25T06:10:42.122Z,35.9
2018-07-25T06:15:44.696Z,0
2018-07-25T06:20:46.877Z,38
2018-07-25T06:25:49.531Z,38.5
2018-07-25T06:30:51.786Z,38.6
2018-07-25T06:35:54.206Z,39.3
2018-07-25T06:40:56.648Z,40
2018-07-25T06:45:59.118Z,39.5
2018-07-25T06:51:01.591Z,39.6
2018-07-25T06:56:03.981Z,40.4
2018-07-25T07:01:06.426Z,40.5
2018-07-25T07:06:08.882Z,40.3
2018-07-25T07:11:11.406Z,40.8
2018-07-25T07:16:13.906Z,41.4
2018-07-25T07:21:16.240Z,40.7
2018-07-25T07:26:18.658Z,40.9
2018-07-25T07:31:21.307Z,40
2018-07-25T07:36:23.647Z,39.1
2018-07-25T07:41:26.005Z,39.2
2018-07-25T07:46:28.793Z,39.3
2018-07-25T07:51:31.001Z,38.8
2018-07-25T08:01:35.775Z,38
2018-07-25T08:06:38.211Z,36.8
2018-07-25T08:11:40.965Z,36.9
2018-07-25T08:16:43.235Z,37
2018-07-25T08:21:45.513Z,38
2018-07-25T08:26:47.966Z,38.2
2018-07-25T08:31:50.445Z,38.4
2018-07-25T08:36:52.897Z,35.9
2018-07-25T08:41:56.002Z,35.5
2018-07-25T08:46:57.865Z,34.7
2018-07-25T08:52:00.198Z,35.4
2018-07-25T08:57:02.608Z,35.2
2018-07-25T09:02:05.149Z,32.9
2018-07-25T09:07:07.516Z,30.1
2018-07-25T09:12:09.967Z,29.5
2018-07-25T09:17:12.577Z,30
2018-07-25T09:22:14.883Z,31
2018-07-25T09:27:17.612Z,30
2018-07-25T09:32:19.704Z,28.7
2018-07-25T09:37:22.220Z,28.9
2018-07-25T09:42:24.595Z,29
2018-07-25T09:47:27.287Z,28.5
2018-07-25T09:52:29.580Z,28.3
2018-07-25T10:02:34.351Z,27.7
2018-07-25T10:07:36.810Z,27.9
2018-07-25T10:12:39.648Z,28.2
2018-07-25T10:17:41.747Z,28.4
2018-07-25T10:22:44.537Z,27.5
2018-07-25T10:27:46.567Z,27.8
2018-07-25T10:32:49.049Z,28
2018-07-25T10:37:51.460Z,28.4
2018-07-25T10:42:54.359Z,28.7
2018-07-25T10:47:56.476Z,28.6
2018-07-25T10:52:58.810Z,28.9
2018-07-25T10:58:01.730Z,29
2018-07-25T11:03:03.977Z,29.4
2018-07-25T11:13:09.369Z,29.2
2018-07-25T11:18:12.186Z,29.1
2018-07-25T11:23:13.649Z,29.2
2018-07-25T11:28:15.985Z,29.6
2018-07-25T11:33:18.321Z,29.9
2018-07-25T11:38:20.968Z,29.6
2018-07-25T11:43:23.506Z,29.5
2018-07-25T11:48:25.748Z,29.5
2018-07-25T11:53:28.153Z,29
2018-07-25T11:58:30.697Z,29.3
2018-07-25T12:03:32.977Z,29.7
2018-07-25T12:08:35.473Z,29.8
2018-07-25T12:13:37.893Z,29.4
2018-07-25T12:18:40.370Z,29.5
2018-07-25T12:23:42.727Z,29.5
2018-07-25T12:28:45.373Z,29.4
2018-07-25T12:33:47.658Z,29.4
2018-07-25T12:38:50.169Z,29.5
2018-07-25T12:43:52.981Z,29.1
2018-07-25T12:48:55.249Z,29.3
2018-07-25T12:53:57.425Z,29.5
2018-07-25T12:59:00.001Z,29.3
2018-07-25T13:04:02.489Z,29.5
2018-07-25T13:09:04.781Z,29.5
2018-07-25T13:14:07.322Z,29.7
2018-07-25T13:19:09.795Z,29.9
2018-07-25T13:24:12.049Z,30.1
2018-07-25T13:29:14.679Z,30.2
2018-07-25T13:34:17.165Z,30.1
2018-07-25T13:39:20.098Z,29.9
2018-07-25T13:44:21.908Z,30.3
2018-07-25T13:49:24.461Z,30.3
2018-07-25T13:54:26.775Z,29.8
2018-07-25T14:04:31.616Z,29.9
2018-07-25T14:09:34.048Z,30
2018-07-25T14:14:36.547Z,30.1
2018-07-25T14:19:38.907Z,29.9
2018-07-25T14:24:41.755Z,29.4
2018-07-25T14:29:44.013Z,29.5
2018-07-25T14:34:46.692Z,29.8
2018-07-25T14:39:48.773Z,29.5
2018-07-25T14:44:51.294Z,29.5
2018-07-25T14:49:53.618Z,29.8
2018-07-25T14:54:55.992Z,29.9
2018-07-25T14:59:58.496Z,29.5
2018-07-25T15:05:00.977Z,28.9
2018-07-25T15:10:03.453Z,28.7
2018-07-25T15:15:05.795Z,28.9
2018-07-25T15:20:08.351Z,29.3
2018-07-25T15:25:10.712Z,29.7
2018-07-25T15:30:13.355Z,29.8
2018-07-25T15:35:15.627Z,29.5
2018-07-25T15:40:18.005Z,29.1
2018-07-25T15:45:20.581Z,28.8
2018-07-25T15:50:22.912Z,28.4
2018-07-25T15:55:25.360Z,28.1
2018-07-25T16:00:27.786Z,28.4
2018-07-25T16:05:30.272Z,28.7
2018-07-25T16:10:32.628Z,28.9
2018-07-25T16:15:35.130Z,29
2018-07-25T16:20:37.526Z,28.9
2018-07-25T16:25:39.944Z,28.5
2018-07-25T16:30:42.588Z,28.2
2018-07-25T16:35:44.933Z,28.3
2018-07-25T16:40:47.699Z,28.5
2018-07-25T16:45:49.712Z,28.8
2018-07-25T16:50:52.399Z,28.9
2018-07-25T16:55:54.683Z,28.9
2018-07-25T17:00:57.216Z,28.8
2018-07-25T17:05:59.821Z,28.6
2018-07-25T17:11:01.984Z,28.6
2018-07-25T17:16:04.529Z,28.6
2018-07-25T17:21:06.816Z,28.5
2018-07-25T17:26:09.244Z,28.3
2018-07-25T17:31:11.888Z,28.1
2018-07-25T17:36:14.160Z,28
2018-07-25T17:41:16.589Z,27.8
2018-07-25T17:46:19.006Z,27.7
2018-07-25T17:51:21.470Z,27.6
2018-07-25T17:56:23.961Z,27.4
2018-07-25T18:01:26.429Z,27
2018-07-25T18:06:28.837Z,26.5
2018-07-25T18:11:31.251Z,26.1
2018-07-25T18:16:33.791Z,25.8
2018-07-25T18:21:36.133Z,25.6
2018-07-25T18:26:38.551Z,25.4
2018-07-25T18:31:40.994Z,25.3
2018-07-25T18:36:43.490Z,25.1
2018-07-25T18:46:48.333Z,24.8
2018-07-25T18:51:51.156Z,24.6
2018-07-25T18:56:53.294Z,24.4
2018-07-25T19:01:55.717Z,24.1
2018-07-25T19:06:58.114Z,23.9
2018-07-25T19:12:00.567Z,23.6
2018-07-25T19:17:03.396Z,23.3
2018-07-25T19:22:05.444Z,22.8
2018-07-25T19:27:07.985Z,22.5
2018-07-25T19:32:10.289Z,22.3
2018-07-25T19:37:12.800Z,22
2018-07-25T19:42:15.280Z,21.7
2018-07-25T19:47:17.640Z,21.4
2018-07-25T19:52:20.326Z,21.2
2018-07-25T19:57:22.504Z,21.1
2018-07-25T20:02:24.974Z,21
2018-07-25T20:07:27.518Z,20.8
2018-07-25T20:12:29.957Z,20.7
2018-07-25T20:17:32.353Z,20.6
2018-07-25T20:22:34.713Z,20.6
2018-07-25T20:27:37.398Z,20.6
2018-07-25T20:32:39.857Z,20.5
2018-07-25T20:37:42.374Z,20.3
2018-07-25T20:42:44.475Z,20.3
2018-07-25T20:47:46.984Z,20.2
2018-07-25T20:52:49.496Z,20
2018-07-25T20:57:51.803Z,19.9
2018-07-25T21:02:54.249Z,19.8
2018-07-25T21:07:56.752Z,19.7
2018-07-25T21:12:59.132Z,19.6
2018-07-25T21:18:01.757Z,19.5
2018-07-25T21:23:04.307Z,19.3
2018-07-25T21:28:06.430Z,19
2018-07-25T21:33:08.893Z,18.9
2018-07-25T21:38:11.317Z,18.9
2018-07-25T21:43:13.772Z,18.9
2018-07-25T21:48:16.712Z,18.9
2018-07-25T21:53:18.707Z,18.7
2018-07-25T21:58:21.081Z,18.6
2018-07-25T22:03:23.522Z,18.6
2018-07-25T22:08:26.390Z,18.5
2018-07-25T22:13:29.590Z,18.5
2018-07-25T22:18:31.169Z,18.4
2018-07-25T22:23:33.440Z,18.3
2018-07-25T22:28:35.934Z,18.1
2018-07-25T22:33:38.364Z,18.1
2018-07-25T22:38:41.577Z,17.9
2018-07-25T22:43:43.291Z,17.8
2018-07-25T22:48:45.740Z,17.6
2018-07-25T22:53:48.525Z,17.5
2018-07-25T22:58:50.437Z,17.4
2018-07-25T23:03:53.843Z,17.3
2018-07-25T23:13:58.277Z,17.2
2018-07-25T23:19:00.530Z,17.3
2018-07-25T23:24:02.758Z,17.3
2018-07-25T23:29:05.637Z,17.1
2018-07-25T23:34:07.571Z,16.9
2018-07-25T23:39:09.963Z,16.8
2018-07-25T23:44:12.409Z,16.7
2018-07-25T23:49:14.912Z,16.6
2018-07-25T23:54:17.286Z,16.5
2018-07-25T23:59:20.093Z,16.5
